Terminal Aerodrome Forecast
Issued by NWS

Home | Current Version | Previous Version | Text Only | Print | Product List | Glossary Off
Versions: 1 2 3 4 5 6 7 8 9 10 11 12 13 14

000
FTUS43 KICT 181726
TAFSLN
TAF
KSLN 181726Z 1818/1918 16010KT P6SM SCT040 BKN080
     FM182200 15012KT P6SM VCTS SCT020 BKN035CB
     FM190600 17006KT P6SM OVC100
     FM191200 29008KT P6SM VCSH SCT020 OVC060=

USA.gov is the U.S. government's official web portal to all federal, state and local government web resources and services.